Time;durP1;ratioP1;P1;durP2;ratioP2;P2;SDS_P1;SDS_P2;PMS_P1;PMS_P2;Temp;Humidity;BMP_temperature;BMP_pressure;BME280_temperature;BME280_humidity;BME280_pressure;Samples;Min_cycle;Max_cycle;Signal;HPM_P1;HPM_P2
2023/12/09 00:00:55;;;;;;;;;;;7.80;99.90;;;;;;4999105;28;20338;-69
2023/12/09 00:03:21;;;;;;;;;;;7.80;99.90;;;;;;4954703;28;19932;-69
2023/12/09 00:05:47;;;;;;;;;;;7.80;99.90;;;;;;4983533;28;20329;-68
2023/12/09 00:08:13;;;;;;;;;;;7.90;99.90;;;;;;4976158;28;20031;-69
2023/12/09 00:10:39;;;;;;;;;;;7.80;99.90;;;;;;4976985;28;19929;-68
2023/12/09 00:13:05;;;;;;;;;;;7.80;99.90;;;;;;4990967;28;19928;-69
2023/12/09 00:15:31;;;;;;;;;;;7.90;99.90;;;;;;4956378;28;19931;-69
2023/12/09 00:17:57;;;;;;;;;;;7.90;99.90;;;;;;4982841;28;20044;-68
2023/12/09 00:20:23;;;;;;;;;;;7.90;99.90;;;;;;4977260;28;20388;-69
2023/12/09 00:22:48;;;;;;;;;;;7.90;99.90;;;;;;4962383;28;19925;-69
2023/12/09 00:25:14;;;;;;;;;;;7.90;99.90;;;;;;4955102;28;19925;-68
2023/12/09 00:27:40;;;;;;;;;;;7.90;99.90;;;;;;4961464;28;20406;-69
2023/12/09 00:30:06;;;;;;;;;;;7.90;99.90;;;;;;4922329;28;19932;-67
2023/12/09 00:32:32;;;;;;;;;;;7.90;99.90;;;;;;4965563;28;19929;-69
2023/12/09 00:35:00;;;;;;;;;;;7.90;99.90;;;;;;4953433;28;20046;-69
2023/12/09 00:37:26;;;;;;;;;;;7.90;99.90;;;;;;4945726;28;20392;-69
2023/12/09 00:39:52;;;;;;;;;;;7.90;99.90;;;;;;4965230;28;20330;-69
2023/12/09 00:42:18;;;;;;;;;;;7.90;99.90;;;;;;4981669;28;19932;-70
2023/12/09 00:44:44;;;;;;;;;;;7.90;99.90;;;;;;4976749;28;19924;-70
2023/12/09 00:47:10;;;;;;;;;;;7.90;99.90;;;;;;4988682;28;20478;-69
2023/12/09 00:49:35;;;;;;;;;;;7.90;99.90;;;;;;4971989;28;19925;-69
2023/12/09 00:52:01;;;;;;;;;;;8.00;99.90;;;;;;4986088;28;19929;-68
2023/12/09 00:54:29;;;;;;;;;;;7.90;99.90;;;;;;4965261;28;19924;-68
2023/12/09 00:56:55;;;;;;;;;;;7.90;99.90;;;;;;4987715;28;19924;-69
2023/12/09 00:59:21;;;;;;;;;;;7.90;99.90;;;;;;4964125;28;19925;-69
2023/12/09 01:01:47;;;;;;;;;;;7.90;99.90;;;;;;4992128;28;19925;-69
2023/12/09 01:04:12;;;;;;;;;;;7.90;99.90;;;;;;4964954;28;19941;-68
2023/12/09 01:06:38;;;;;;;;;;;7.90;99.90;;;;;;4982253;28;19982;-69
2023/12/09 01:09:04;;;;;;;;;;;7.90;99.90;;;;;;4966934;28;19936;-68
2023/12/09 01:11:30;;;;;;;;;;;8.00;99.90;;;;;;4999634;28;20287;-69
2023/12/09 01:13:56;;;;;;;;;;;8.00;99.90;;;;;;4959445;28;19925;-68
2023/12/09 01:16:22;;;;;;;;;;;7.90;99.90;;;;;;4994526;28;20006;-69
2023/12/09 01:18:48;;;;;;;;;;;8.00;99.90;;;;;;4959342;28;20378;-69
2023/12/09 01:21:14;;;;;;;;;;;8.00;99.90;;;;;;4994836;28;19932;-68
2023/12/09 01:23:40;;;;;;;;;;;8.00;99.90;;;;;;4960834;28;19924;-68
2023/12/09 01:26:09;;;;;;;;;;;8.00;99.90;;;;;;5015249;28;19936;-69
2023/12/09 01:28:34;;;;;;;;;;;8.00;99.90;;;;;;4959981;28;20532;-68
2023/12/09 01:31:00;;;;;;;;;;;8.00;99.90;;;;;;4977504;28;20963;-68
2023/12/09 01:33:26;;;;;;;;;;;8.00;99.90;;;;;;4932027;28;19933;-69
2023/12/09 01:35:52;;;;;;;;;;;8.10;99.90;;;;;;4975460;28;21119;-68
2023/12/09 01:38:18;;;;;;;;;;;8.00;99.90;;;;;;4931553;28;20376;-68
2023/12/09 01:40:51;;;;;;;;;;;8.10;99.90;;;;;;4963804;28;20419;-70
2023/12/09 01:43:16;;;;;;;;;;;8.10;99.90;;;;;;4946721;28;19933;-70
2023/12/09 01:45:42;;;;;;;;;;;8.10;99.90;;;;;;5000752;28;19929;-69
2023/12/09 01:48:08;;;;;;;;;;;8.10;99.90;;;;;;4980854;28;20638;-69
2023/12/09 01:50:34;;;;;;;;;;;8.10;99.90;;;;;;4976251;28;19929;-68
2023/12/09 01:53:00;;;;;;;;;;;8.10;99.90;;;;;;4990932;28;19929;-69
2023/12/09 01:55:27;;;;;;;;;;;8.10;99.90;;;;;;4967505;28;19935;-68
2023/12/09 01:57:53;;;;;;;;;;;8.10;99.90;;;;;;4982502;28;20443;-69
2023/12/09 02:00:19;;;;;;;;;;;8.10;99.90;;;;;;4949440;28;19924;-68
2023/12/09 02:02:45;;;;;;;;;;;8.00;99.90;;;;;;4980878;28;19932;-68
2023/12/09 02:05:11;;;;;;;;;;;8.00;99.90;;;;;;4982156;28;20655;-68
2023/12/09 02:07:37;;;;;;;;;;;8.10;99.90;;;;;;4977721;28;19925;-68
2023/12/09 02:10:04;;;;;;;;;;;8.00;99.90;;;;;;4972406;28;20937;-68
2023/12/09 02:12:42;;;;;;;;;;;8.00;99.90;;;;;;4983057;28;19936;-68
2023/12/09 02:15:08;;;;;;;;;;;8.00;99.90;;;;;;4963817;28;19935;-68
2023/12/09 02:17:37;;;;;;;;;;;8.00;99.90;;;;;;4975402;28;20218;-68
2023/12/09 02:20:03;;;;;;;;;;;8.10;99.90;;;;;;4960154;28;19951;-68
2023/12/09 02:22:29;;;;;;;;;;;8.10;99.90;;;;;;4982813;28;20812;-67
2023/12/09 02:24:55;;;;;;;;;;;8.10;99.90;;;;;;4960153;28;19924;-67
2023/12/09 02:27:24;;;;;;;;;;;8.10;99.90;;;;;;4986012;28;20039;-68
2023/12/09 02:29:53;;;;;;;;;;;8.00;99.90;;;;;;4968297;28;19925;-68
2023/12/09 02:32:20;;;;;;;;;;;8.10;99.90;;;;;;4981275;28;19960;-67
2023/12/09 02:34:46;;;;;;;;;;;8.10;99.90;;;;;;4969326;28;19925;-68
2023/12/09 02:37:13;;;;;;;;;;;8.00;99.90;;;;;;4988371;28;19932;-69
2023/12/09 02:39:39;;;;;;;;;;;8.00;99.90;;;;;;4964583;28;20416;-69
2023/12/09 02:42:05;;;;;;;;;;;8.10;99.90;;;;;;4983098;28;19941;-69
2023/12/09 02:44:31;;;;;;;;;;;8.10;99.90;;;;;;4951014;28;21029;-67
2023/12/09 02:46:57;;;;;;;;;;;8.10;99.90;;;;;;4986255;28;19952;-67
2023/12/09 02:49:23;;;;;;;;;;;8.10;99.90;;;;;;4954893;28;20023;-68
2023/12/09 02:51:49;;;;;;;;;;;8.10;99.90;;;;;;4966047;28;20013;-68
2023/12/09 02:54:15;;;;;;;;;;;8.10;99.90;;;;;;4955051;28;21140;-68
2023/12/09 02:56:41;;;;;;;;;;;8.00;99.90;;;;;;4985642;28;19929;-69
2023/12/09 02:59:07;;;;;;;;;;;8.10;99.90;;;;;;4936610;28;20038;-68
2023/12/09 03:01:33;;;;;;;;;;;8.10;99.90;;;;;;4987313;28;20425;-68
2023/12/09 03:03:59;;;;;;;;;;;8.10;99.90;;;;;;4938169;28;19956;-68
2023/12/09 03:06:25;;;;;;;;;;;8.10;99.90;;;;;;4991272;28;19925;-68
2023/12/09 03:08:50;;;;;;;;;;;8.10;99.90;;;;;;4958124;28;19924;-68
2023/12/09 03:11:16;;;;;;;;;;;8.00;99.90;;;;;;4990562;28;19925;-68
2023/12/09 03:13:42;;;;;;;;;;;8.00;99.90;;;;;;4936306;28;19928;-68
2023/12/09 03:16:08;;;;;;;;;;;8.00;99.90;;;;;;4990080;28;19932;-68
2023/12/09 03:18:34;;;;;;;;;;;8.00;99.90;;;;;;4954894;28;19951;-68
2023/12/09 03:21:00;;;;;;;;;;;7.90;99.90;;;;;;4995090;28;19925;-68
2023/12/09 03:23:26;;;;;;;;;;;8.00;99.90;;;;;;4954391;28;19929;-68
2023/12/09 03:25:52;;;;;;;;;;;7.90;99.90;;;;;;4999343;28;19948;-67
2023/12/09 03:28:18;;;;;;;;;;;7.90;99.90;;;;;;4961328;28;19930;-67
2023/12/09 03:30:44;;;;;;;;;;;7.90;99.90;;;;;;4990572;28;19933;-68
2023/12/09 03:33:10;;;;;;;;;;;7.90;99.90;;;;;;4982679;28;19964;-68
2023/12/09 03:35:35;;;;;;;;;;;7.90;99.90;;;;;;4934341;28;20394;-67
2023/12/09 03:38:01;;;;;;;;;;;7.90;99.90;;;;;;4962934;28;19931;-68
2023/12/09 03:40:27;;;;;;;;;;;7.90;99.90;;;;;;4971242;28;20116;-68
2023/12/09 03:42:53;;;;;;;;;;;7.90;99.90;;;;;;4966870;28;19991;-68
2023/12/09 03:45:19;;;;;;;;;;;7.90;99.90;;;;;;4944434;28;19925;-69
2023/12/09 03:47:45;;;;;;;;;;;7.80;99.90;;;;;;4963781;28;20425;-68
2023/12/09 03:50:11;;;;;;;;;;;7.80;99.90;;;;;;4943044;28;20505;-69
2023/12/09 03:52:37;;;;;;;;;;;7.80;99.90;;;;;;4960629;28;19980;-68
2023/12/09 03:55:03;;;;;;;;;;;7.80;99.90;;;;;;4976306;28;19925;-68
2023/12/09 03:57:29;;;;;;;;;;;7.80;99.90;;;;;;4986718;28;20574;-68
2023/12/09 03:59:56;;;;;;;;;;;7.80;99.90;;;;;;4970016;28;20086;-68
2023/12/09 04:02:22;;;;;;;;;;;7.90;99.90;;;;;;4986723;28;19925;-68
2023/12/09 04:04:47;;;;;;;;;;;7.80;99.90;;;;;;4967948;28;19931;-69
2023/12/09 04:07:13;;;;;;;;;;;7.80;99.90;;;;;;4988180;28;19931;-68
2023/12/09 04:09:39;;;;;;;;;;;7.90;99.90;;;;;;4978029;28;19924;-68
2023/12/09 04:12:05;;;;;;;;;;;7.90;99.90;;;;;;4982667;28;19929;-69
2023/12/09 04:14:31;;;;;;;;;;;7.80;99.90;;;;;;4959585;28;19931;-68
2023/12/09 04:16:57;;;;;;;;;;;7.80;99.90;;;;;;4990933;28;20258;-69
2023/12/09 04:19:23;;;;;;;;;;;7.80;99.90;;;;;;4971271;28;19924;-68
2023/12/09 04:21:49;;;;;;;;;;;7.80;99.90;;;;;;4994057;28;19933;-68
2023/12/09 04:24:14;;;;;;;;;;;7.80;99.90;;;;;;4963762;28;20501;-68
2023/12/09 04:26:40;;;;;;;;;;;7.80;99.90;;;;;;4996216;28;19929;-68
2023/12/09 04:29:06;;;;;;;;;;;7.80;99.90;;;;;;4953155;28;20646;-68
2023/12/09 04:31:32;;;;;;;;;;;7.80;99.90;;;;;;4979543;28;19967;-68
2023/12/09 04:33:58;;;;;;;;;;;7.80;99.90;;;;;;4964886;28;20421;-68
2023/12/09 04:36:24;;;;;;;;;;;7.80;99.90;;;;;;4990335;28;19925;-68
2023/12/09 04:38:50;;;;;;;;;;;7.80;99.90;;;;;;4958405;28;19924;-67
2023/12/09 04:41:16;;;;;;;;;;;7.90;99.90;;;;;;4999143;28;19924;-68
2023/12/09 04:43:42;;;;;;;;;;;7.80;99.90;;;;;;4954801;28;19925;-68
2023/12/09 04:46:08;;;;;;;;;;;7.80;99.90;;;;;;4980650;28;19925;-68
2023/12/09 04:48:34;;;;;;;;;;;7.90;99.90;;;;;;4956486;28;19936;-68
2023/12/09 04:50:59;;;;;;;;;;;7.80;99.90;;;;;;4992315;28;19925;-69
2023/12/09 04:53:25;;;;;;;;;;;7.80;99.90;;;;;;4956066;28;19929;-70
2023/12/09 04:55:51;;;;;;;;;;;7.90;99.90;;;;;;4998777;28;20429;-69
2023/12/09 04:58:17;;;;;;;;;;;7.80;99.90;;;;;;4964469;28;19925;-67
2023/12/09 05:00:43;;;;;;;;;;;7.80;99.90;;;;;;4996096;28;21108;-68
2023/12/09 05:03:09;;;;;;;;;;;7.80;99.90;;;;;;4980526;28;21115;-68
2023/12/09 05:05:35;;;;;;;;;;;7.80;99.90;;;;;;4974735;28;19932;-69
2023/12/09 05:08:01;;;;;;;;;;;7.80;99.90;;;;;;5000024;28;20836;-68
2023/12/09 05:10:27;;;;;;;;;;;7.80;99.90;;;;;;4984767;28;19924;-68
2023/12/09 05:12:53;;;;;;;;;;;7.90;99.90;;;;;;4979542;28;20623;-67
2023/12/09 05:15:19;;;;;;;;;;;7.90;99.90;;;;;;4973360;28;19925;-68
2023/12/09 05:17:45;;;;;;;;;;;7.90;99.90;;;;;;4983513;28;19929;-68
2023/12/09 05:20:11;;;;;;;;;;;7.90;99.90;;;;;;4969799;28;19924;-67
2023/12/09 05:22:37;;;;;;;;;;;7.90;99.90;;;;;;4981985;28;19925;-68
2023/12/09 05:25:03;;;;;;;;;;;7.90;99.90;;;;;;4963219;28;19931;-69
2023/12/09 05:27:29;;;;;;;;;;;7.90;99.90;;;;;;4982551;28;20474;-68
2023/12/09 05:29:55;;;;;;;;;;;7.80;99.90;;;;;;4971790;28;19929;-68
2023/12/09 05:32:21;;;;;;;;;;;7.90;99.90;;;;;;4963930;28;20025;-68
2023/12/09 05:34:47;;;;;;;;;;;7.80;99.90;;;;;;4966701;28;20044;-68
2023/12/09 05:37:13;;;;;;;;;;;7.90;99.90;;;;;;4985806;28;21186;-69
2023/12/09 05:39:39;;;;;;;;;;;7.80;99.90;;;;;;4955542;28;19924;-68
2023/12/09 05:42:05;;;;;;;;;;;7.80;99.90;;;;;;4988749;28;20928;-71
2023/12/09 05:44:31;;;;;;;;;;;7.90;99.90;;;;;;4963862;28;19924;-67
2023/12/09 05:46:57;;;;;;;;;;;7.90;99.90;;;;;;4989575;28;19925;-69
2023/12/09 05:49:23;;;;;;;;;;;7.80;99.90;;;;;;4956201;28;19925;-68
2023/12/09 05:51:49;;;;;;;;;;;7.80;99.90;;;;;;4988842;28;20201;-68
2023/12/09 05:54:15;;;;;;;;;;;7.80;99.90;;;;;;4966215;28;19943;-68
2023/12/09 05:56:47;;;;;;;;;;;7.80;99.90;;;;;;4988667;28;20107;-68
2023/12/09 05:59:13;;;;;;;;;;;7.80;99.90;;;;;;4962928;28;19924;-68
2023/12/09 06:01:38;;;;;;;;;;;7.80;99.90;;;;;;4992730;28;19925;-68
2023/12/09 06:04:04;;;;;;;;;;;7.80;99.90;;;;;;4962323;28;21093;-69
2023/12/09 06:06:30;;;;;;;;;;;7.80;99.90;;;;;;4985209;28;19939;-68
2023/12/09 06:08:56;;;;;;;;;;;7.80;99.90;;;;;;4962380;28;20967;-67
2023/12/09 06:11:22;;;;;;;;;;;7.80;99.90;;;;;;5001800;28;19925;-69
2023/12/09 06:13:48;;;;;;;;;;;7.80;99.90;;;;;;4957826;28;20182;-69
2023/12/09 06:16:18;;;;;;;;;;;7.80;99.90;;;;;;4995906;28;19940;-69
2023/12/09 06:18:44;;;;;;;;;;;7.80;99.90;;;;;;4958229;28;19935;-68
2023/12/09 06:21:18;;;;;;;;;;;7.70;99.90;;;;;;5002866;28;19925;-68
2023/12/09 06:23:43;;;;;;;;;;;7.70;99.90;;;;;;4982484;28;19931;-68
2023/12/09 06:26:09;;;;;;;;;;;7.70;99.90;;;;;;4993957;28;19948;-69
2023/12/09 06:28:36;;;;;;;;;;;7.70;99.90;;;;;;4955580;28;19934;-67
2023/12/09 06:31:02;;;;;;;;;;;7.70;99.90;;;;;;5001490;28;21105;-68
2023/12/09 06:33:28;;;;;;;;;;;7.70;99.90;;;;;;4953985;28;19929;-68
2023/12/09 06:35:54;;;;;;;;;;;7.70;99.90;;;;;;4996767;28;19929;-69
2023/12/09 06:38:19;;;;;;;;;;;7.60;99.90;;;;;;4983690;28;19925;-67
2023/12/09 06:40:45;;;;;;;;;;;7.60;99.90;;;;;;4993143;28;19929;-68
2023/12/09 06:43:11;;;;;;;;;;;7.60;99.90;;;;;;4979855;28;19925;-68
2023/12/09 06:45:37;;;;;;;;;;;7.60;99.90;;;;;;4952428;28;19928;-68
2023/12/09 06:48:03;;;;;;;;;;;7.60;99.90;;;;;;4980802;28;20886;-69
2023/12/09 06:50:29;;;;;;;;;;;7.60;99.90;;;;;;4971453;28;19925;-69
2023/12/09 06:52:55;;;;;;;;;;;7.50;99.90;;;;;;4997477;28;20969;-68
2023/12/09 06:55:21;;;;;;;;;;;7.50;99.90;;;;;;4940955;28;19954;-68
2023/12/09 06:57:47;;;;;;;;;;;7.50;99.90;;;;;;4980448;28;19929;-68
2023/12/09 07:00:15;;;;;;;;;;;7.40;99.90;;;;;;4974120;28;20412;-68
2023/12/09 07:02:42;;;;;;;;;;;7.40;99.90;;;;;;4984810;28;19929;-69
2023/12/09 07:05:10;;;;;;;;;;;7.40;99.90;;;;;;4975847;28;19943;-68
2023/12/09 07:07:36;;;;;;;;;;;7.40;99.90;;;;;;4989263;28;20001;-68
2023/12/09 07:10:05;;;;;;;;;;;7.40;99.90;;;;;;4960228;28;20706;-68
2023/12/09 07:12:31;;;;;;;;;;;7.30;99.90;;;;;;4987933;28;20394;-67
2023/12/09 07:14:59;;;;;;;;;;;7.30;99.90;;;;;;4962300;28;19929;-68
2023/12/09 07:17:25;;;;;;;;;;;7.30;99.90;;;;;;4993024;28;20040;-68
2023/12/09 07:19:52;;;;;;;;;;;7.30;99.90;;;;;;4982900;28;19930;-70
2023/12/09 07:22:21;;;;;;;;;;;7.30;99.90;;;;;;4992291;28;19925;-70
2023/12/09 07:24:47;;;;;;;;;;;7.30;99.90;;;;;;4974091;28;19936;-70
2023/12/09 07:27:13;;;;;;;;;;;7.30;99.90;;;;;;5000152;28;19925;-68
2023/12/09 07:29:39;;;;;;;;;;;7.30;99.90;;;;;;4976943;28;20466;-70
2023/12/09 07:32:05;;;;;;;;;;;7.30;99.90;;;;;;4997920;28;19925;-71
2023/12/09 07:34:31;;;;;;;;;;;7.20;99.90;;;;;;4985099;28;20551;-68
2023/12/09 07:36:57;;;;;;;;;;;7.30;99.90;;;;;;5000803;28;19959;-67
2023/12/09 07:39:23;;;;;;;;;;;7.20;99.90;;;;;;4964896;28;20705;-68
2023/12/09 07:41:51;;;;;;;;;;;7.20;99.90;;;;;;5003069;28;20429;-68
2023/12/09 07:44:17;;;;;;;;;;;7.20;99.90;;;;;;4963346;28;19932;-68
2023/12/09 07:46:43;;;;;;;;;;;7.20;99.90;;;;;;5000041;28;20548;-69
2023/12/09 07:49:09;;;;;;;;;;;7.20;99.90;;;;;;4993338;28;19924;-68
2023/12/09 07:51:35;;;;;;;;;;;7.20;99.90;;;;;;5004742;28;20813;-68
2023/12/09 07:54:01;;;;;;;;;;;7.20;99.90;;;;;;4969895;28;19935;-68
2023/12/09 07:56:27;;;;;;;;;;;7.20;99.90;;;;;;4995470;28;19929;-68
2023/12/09 07:58:53;;;;;;;;;;;7.20;99.90;;;;;;4963422;28;19925;-68
2023/12/09 08:01:19;;;;;;;;;;;7.20;99.90;;;;;;5002032;28;19943;-67
2023/12/09 08:03:45;;;;;;;;;;;7.20;99.90;;;;;;4958710;28;19931;-67
2023/12/09 08:06:11;;;;;;;;;;;7.20;99.90;;;;;;4990202;28;19931;-68
2023/12/09 08:08:38;;;;;;;;;;;7.20;99.90;;;;;;4959926;28;19929;-67
2023/12/09 08:11:05;;;;;;;;;;;7.20;99.90;;;;;;5005042;28;19956;-67
2023/12/09 08:13:31;;;;;;;;;;;7.20;99.90;;;;;;4956889;28;20533;-69
2023/12/09 08:15:57;;;;;;;;;;;7.20;99.90;;;;;;5001934;28;19926;-67
2023/12/09 08:18:23;;;;;;;;;;;7.20;99.90;;;;;;4956733;28;19947;-68
2023/12/09 08:20:49;;;;;;;;;;;7.20;99.90;;;;;;4974264;28;20010;-68
2023/12/09 08:23:15;;;;;;;;;;;7.20;99.90;;;;;;4976365;28;19933;-68
2023/12/09 08:25:43;;;;;;;;;;;7.20;99.90;;;;;;4990799;28;20741;-69
2023/12/09 08:28:09;;;;;;;;;;;7.20;99.90;;;;;;4986023;28;19924;-68
2023/12/09 08:30:35;;;;;;;;;;;7.20;99.90;;;;;;4960001;28;19924;-69
2023/12/09 08:33:01;;;;;;;;;;;7.20;99.90;;;;;;5018547;28;19932;-68
2023/12/09 08:35:27;;;;;;;;;;;7.20;99.90;;;;;;4974383;28;19929;-69
2023/12/09 08:37:53;;;;;;;;;;;7.20;99.90;;;;;;4984636;28;19952;-67
2023/12/09 08:40:19;;;;;;;;;;;7.20;99.90;;;;;;4959887;28;19925;-68
2023/12/09 08:42:45;;;;;;;;;;;7.20;99.90;;;;;;4989606;28;19936;-68
2023/12/09 08:45:15;;;;;;;;;;;7.20;99.90;;;;;;4994769;28;19925;-68
2023/12/09 08:47:41;;;;;;;;;;;7.20;99.90;;;;;;5007557;28;19917;-69
2023/12/09 08:50:08;;;;;;;;;;;7.30;99.90;;;;;;4987931;28;21061;-68
2023/12/09 08:52:34;;;;;;;;;;;7.30;99.90;;;;;;4965222;28;20648;-68
2023/12/09 08:55:00;;;;;;;;;;;7.30;99.90;;;;;;4981952;28;19958;-68
2023/12/09 08:57:26;;;;;;;;;;;7.30;99.90;;;;;;4983328;28;19935;-69
2023/12/09 08:59:52;;;;;;;;;;;7.30;99.90;;;;;;4971072;28;19996;-68
2023/12/09 09:02:19;;;;;;;;;;;7.30;99.90;;;;;;4983151;28;20541;-69
2023/12/09 09:04:45;;;;;;;;;;;7.30;99.90;;;;;;4973389;28;19924;-69
2023/12/09 09:07:11;;;;;;;;;;;7.30;99.90;;;;;;4956890;28;19929;-68
2023/12/09 09:09:40;;;;;;;;;;;7.30;99.90;;;;;;4959212;28;19932;-69
2023/12/09 09:12:06;;;;;;;;;;;7.30;99.90;;;;;;4985216;28;20566;-68
2023/12/09 09:14:36;;;;;;;;;;;7.40;99.90;;;;;;4963400;28;19932;-68
2023/12/09 09:17:05;;;;;;;;;;;7.40;99.90;;;;;;4980876;28;20403;-67
2023/12/09 09:19:31;;;;;;;;;;;7.40;99.90;;;;;;4961469;28;20626;-69
2023/12/09 09:21:57;;;;;;;;;;;7.40;99.90;;;;;;4986885;28;19932;-68
2023/12/09 09:24:23;;;;;;;;;;;7.40;99.90;;;;;;4960241;28;19931;-68
2023/12/09 09:26:49;;;;;;;;;;;7.50;99.90;;;;;;4987203;28;20241;-68
2023/12/09 09:29:15;;;;;;;;;;;7.50;99.90;;;;;;4959634;28;20983;-68
2023/12/09 09:31:41;;;;;;;;;;;7.50;99.90;;;;;;4980220;28;19925;-68
2023/12/09 09:34:07;;;;;;;;;;;7.50;99.90;;;;;;4958297;28;20012;-68
2023/12/09 09:36:32;;;;;;;;;;;7.50;99.90;;;;;;4980203;28;19975;-69
2023/12/09 09:38:58;;;;;;;;;;;7.50;99.90;;;;;;4955314;28;19925;-68
2023/12/09 09:41:30;;;;;;;;;;;7.50;99.90;;;;;;4987975;28;19925;-68
2023/12/09 09:44:06;;;;;;;;;;;7.50;99.90;;;;;;4981639;28;19928;-68
2023/12/09 09:46:33;;;;;;;;;;;7.50;99.90;;;;;;4988677;28;19926;-68
2023/12/09 09:49:01;;;;;;;;;;;7.50;99.90;;;;;;4955799;28;20469;-68
2023/12/09 09:51:29;;;;;;;;;;;7.40;99.90;;;;;;4993030;28;19929;-68
2023/12/09 09:54:24;;;;;;;;;;;7.40;99.90;;;;;;4954324;28;19933;-67
2023/12/09 09:56:50;;;;;;;;;;;7.40;99.90;;;;;;4987403;28;19967;-68
2023/12/09 09:59:17;;;;;;;;;;;7.50;99.90;;;;;;4955126;28;21085;-68
2023/12/09 10:01:46;;;;;;;;;;;7.50;99.90;;;;;;4986835;28;20407;-69
2023/12/09 10:04:12;;;;;;;;;;;7.50;99.90;;;;;;4959155;28;19976;-67
2023/12/09 10:06:40;;;;;;;;;;;7.50;99.90;;;;;;4990023;28;19945;-69
2023/12/09 10:09:06;;;;;;;;;;;7.50;99.90;;;;;;4952872;28;20494;-68
2023/12/09 10:11:32;;;;;;;;;;;7.50;99.90;;;;;;4962734;28;19929;-68
2023/12/09 10:13:58;;;;;;;;;;;7.50;99.90;;;;;;4948965;28;20009;-67
2023/12/09 10:16:23;;;;;;;;;;;7.50;99.90;;;;;;4991026;28;19932;-68
2023/12/09 10:18:49;;;;;;;;;;;7.60;99.90;;;;;;4952581;28;19944;-68
2023/12/09 10:21:16;;;;;;;;;;;7.60;99.90;;;;;;4994381;28;19929;-68
2023/12/09 10:23:45;;;;;;;;;;;7.70;99.90;;;;;;4966294;28;19933;-68
2023/12/09 10:26:14;;;;;;;;;;;7.60;99.90;;;;;;4979774;28;19925;-69
2023/12/09 10:28:40;;;;;;;;;;;7.70;99.90;;;;;;4953446;28;19925;-68
2023/12/09 10:31:09;;;;;;;;;;;7.70;99.90;;;;;;4994327;28;20215;-69
2023/12/09 10:33:35;;;;;;;;;;;7.70;99.90;;;;;;4952192;28;19933;-67
2023/12/09 10:36:02;;;;;;;;;;;7.80;99.90;;;;;;4990862;28;19925;-67
2023/12/09 10:38:28;;;;;;;;;;;7.80;99.90;;;;;;4984572;28;19925;-68
2023/12/09 10:40:54;;;;;;;;;;;7.70;99.90;;;;;;4999148;28;19928;-68
2023/12/09 10:43:20;;;;;;;;;;;7.80;99.90;;;;;;4955934;28;19925;-67
2023/12/09 10:45:46;;;;;;;;;;;7.90;99.90;;;;;;5001667;28;20406;-68
2023/12/09 10:48:12;;;;;;;;;;;7.90;99.90;;;;;;4983074;28;19925;-68
2023/12/09 10:50:38;;;;;;;;;;;7.90;99.90;;;;;;4945816;28;21335;-68
2023/12/09 10:53:04;;;;;;;;;;;7.90;99.90;;;;;;4963954;28;19929;-67
2023/12/09 10:55:31;;;;;;;;;;;8.00;99.90;;;;;;4947718;28;19964;-68
2023/12/09 10:58:00;;;;;;;;;;;8.00;99.90;;;;;;4961758;28;20572;-68
2023/12/09 11:00:26;;;;;;;;;;;8.00;99.90;;;;;;4953825;28;19949;-67
2023/12/09 11:02:55;;;;;;;;;;;8.10;99.90;;;;;;4982388;28;19925;-67
2023/12/09 11:05:22;;;;;;;;;;;8.10;99.90;;;;;;4959286;28;19932;-68
2023/12/09 11:07:48;;;;;;;;;;;8.00;99.90;;;;;;5001803;28;20518;-67
2023/12/09 11:10:14;;;;;;;;;;;8.00;99.90;;;;;;4974903;28;19928;-67
2023/12/09 11:12:46;;;;;;;;;;;8.10;99.90;;;;;;4981106;28;19971;-67
2023/12/09 11:15:12;;;;;;;;;;;8.10;99.90;;;;;;4974081;28;19936;-67
2023/12/09 11:17:40;;;;;;;;;;;8.00;99.90;;;;;;4983776;28;20506;-67
2023/12/09 11:20:09;;;;;;;;;;;8.00;99.90;;;;;;4964604;28;19925;-68
2023/12/09 11:22:40;;;;;;;;;;;8.00;99.90;;;;;;4981098;28;19929;-67
2023/12/09 11:25:18;;;;;;;;;;;8.00;99.90;;;;;;4971819;28;20035;-67
2023/12/09 11:27:44;;;;;;;;;;;8.00;99.90;;;;;;4964195;28;19929;-67
2023/12/09 11:30:29;;;;;;;;;;;8.10;99.90;;;;;;4967966;28;19924;-67
2023/12/09 11:32:55;;;;;;;;;;;8.10;99.90;;;;;;4980491;28;20001;-67
2023/12/09 11:35:21;;;;;;;;;;;8.20;99.90;;;;;;4972414;28;20574;-67
2023/12/09 11:37:48;;;;;;;;;;;8.10;99.90;;;;;;4980061;28;20111;-67
2023/12/09 11:40:14;;;;;;;;;;;8.10;99.90;;;;;;4970216;28;21070;-67
2023/12/09 11:42:40;;;;;;;;;;;8.20;99.90;;;;;;4982147;28;19925;-67
2023/12/09 11:45:07;;;;;;;;;;;8.20;99.90;;;;;;4965390;28;21159;-67
2023/12/09 11:47:34;;;;;;;;;;;8.20;99.90;;;;;;4981807;28;19925;-67
2023/12/09 11:50:01;;;;;;;;;;;8.20;99.90;;;;;;4954649;28;19929;-67
2023/12/09 11:52:27;;;;;;;;;;;8.20;99.90;;;;;;4984774;28;19936;-68
2023/12/09 11:54:59;;;;;;;;;;;8.20;99.90;;;;;;4958197;28;19940;-68
2023/12/09 11:57:27;;;;;;;;;;;8.20;99.90;;;;;;4982088;28;19925;-67
2023/12/09 11:59:53;;;;;;;;;;;8.20;99.90;;;;;;4963657;28;19925;-67
2023/12/09 12:02:19;;;;;;;;;;;8.20;99.90;;;;;;4980180;28;20386;-67
2023/12/09 12:04:45;;;;;;;;;;;8.20;99.90;;;;;;4957099;28;20227;-67
2023/12/09 12:07:11;;;;;;;;;;;8.20;99.90;;;;;;4985786;28;20900;-66
2023/12/09 12:09:38;;;;;;;;;;;8.20;99.90;;;;;;4952224;28;19932;-67
2023/12/09 12:12:05;;;;;;;;;;;8.20;99.90;;;;;;5012112;28;19929;-69
2023/12/09 12:14:31;;;;;;;;;;;8.20;99.90;;;;;;4959771;28;21038;-67
2023/12/09 12:17:01;;;;;;;;;;;8.20;99.90;;;;;;4987863;28;19925;-68
2023/12/09 12:19:27;;;;;;;;;;;8.20;99.90;;;;;;4957216;28;21003;-68
2023/12/09 12:21:53;;;;;;;;;;;8.20;99.90;;;;;;4990498;28;19932;-68
2023/12/09 12:24:19;;;;;;;;;;;8.30;99.90;;;;;;4955203;28;19924;-68
2023/12/09 12:26:46;;;;;;;;;;;8.30;99.90;;;;;;4978183;28;20586;-68
2023/12/09 12:29:18;;;;;;;;;;;8.30;99.90;;;;;;4960785;28;19943;-67
2023/12/09 12:31:47;;;;;;;;;;;8.30;99.90;;;;;;4988117;28;19924;-68
2023/12/09 12:34:17;;;;;;;;;;;8.30;99.90;;;;;;4958782;28;21134;-68
2023/12/09 12:36:43;;;;;;;;;;;8.30;99.90;;;;;;4975194;28;20245;-67
2023/12/09 12:39:11;;;;;;;;;;;8.30;99.90;;;;;;4961284;28;19924;-68
2023/12/09 12:41:38;;;;;;;;;;;8.30;99.90;;;;;;4991508;28;19932;-67
2023/12/09 12:44:04;;;;;;;;;;;8.40;99.90;;;;;;4958300;28;19936;-69
2023/12/09 12:46:30;;;;;;;;;;;8.30;99.90;;;;;;4988338;28;19925;-68
2023/12/09 12:48:56;;;;;;;;;;;8.40;99.90;;;;;;4948902;28;19936;-69
2023/12/09 12:51:22;;;;;;;;;;;8.40;99.90;;;;;;4988877;28;20862;-68
2023/12/09 12:53:48;;;;;;;;;;;8.40;99.90;;;;;;4953566;28;20462;-68
2023/12/09 12:56:14;;;;;;;;;;;8.40;99.90;;;;;;4979969;28;19925;-68
2023/12/09 12:58:40;;;;;;;;;;;8.30;99.90;;;;;;4951160;28;19936;-68
2023/12/09 13:01:06;;;;;;;;;;;8.40;99.90;;;;;;4981704;28;19928;-67
2023/12/09 13:03:33;;;;;;;;;;;8.30;99.90;;;;;;4953614;28;19941;-67
2023/12/09 13:05:59;;;;;;;;;;;8.30;99.90;;;;;;4980804;28;19928;-67
2023/12/09 13:08:28;;;;;;;;;;;8.30;99.90;;;;;;4956004;28;19932;-68
2023/12/09 13:10:54;;;;;;;;;;;8.30;99.90;;;;;;4999131;28;19921;-68
2023/12/09 13:13:20;;;;;;;;;;;8.30;99.90;;;;;;4951567;28;19931;-67
2023/12/09 13:15:46;;;;;;;;;;;8.30;99.90;;;;;;4997819;28;20004;-68
2023/12/09 13:18:12;;;;;;;;;;;8.20;99.90;;;;;;4980087;28;19924;-67
2023/12/09 13:20:39;;;;;;;;;;;8.30;99.90;;;;;;4947367;28;20544;-68
2023/12/09 13:23:05;;;;;;;;;;;8.30;99.90;;;;;;4978721;28;19929;-68
2023/12/09 13:25:32;;;;;;;;;;;8.30;99.90;;;;;;4961779;28;20261;-68
2023/12/09 13:27:58;;;;;;;;;;;8.30;99.90;;;;;;4979658;28;19925;-68
2023/12/09 13:30:24;;;;;;;;;;;8.30;99.90;;;;;;4966341;28;19924;-67
2023/12/09 13:32:50;;;;;;;;;;;8.30;99.90;;;;;;4982603;28;19925;-67
2023/12/09 13:35:16;;;;;;;;;;;8.30;99.90;;;;;;4979733;28;19936;-68
2023/12/09 13:37:42;;;;;;;;;;;8.30;99.90;;;;;;4980893;28;19929;-68
2023/12/09 13:40:12;;;;;;;;;;;8.30;99.90;;;;;;4968480;28;20948;-67
2023/12/09 13:42:38;;;;;;;;;;;8.30;99.90;;;;;;4982223;28;19929;-68
2023/12/09 13:45:05;;;;;;;;;;;8.20;99.90;;;;;;4950661;28;20525;-68
2023/12/09 13:47:31;;;;;;;;;;;8.20;99.90;;;;;;4974791;28;20258;-68
2023/12/09 13:49:56;;;;;;;;;;;8.20;99.90;;;;;;4973108;28;20428;-67
2023/12/09 13:52:27;;;;;;;;;;;8.20;99.90;;;;;;4982428;28;20468;-66
2023/12/09 13:54:53;;;;;;;;;;;8.10;99.90;;;;;;4959583;28;20611;-68
2023/12/09 13:57:19;;;;;;;;;;;8.10;99.90;;;;;;4975116;28;19929;-68
2023/12/09 13:59:45;;;;;;;;;;;8.00;99.90;;;;;;4961456;28;19936;-68
2023/12/09 14:02:11;;;;;;;;;;;8.00;99.90;;;;;;4989644;28;20444;-68
2023/12/09 14:04:37;;;;;;;;;;;8.00;99.90;;;;;;4958666;28;19932;-69
2023/12/09 14:07:04;;;;;;;;;;;7.90;99.90;;;;;;4990936;28;20039;-70
2023/12/09 14:09:30;;;;;;;;;;;7.90;99.90;;;;;;4962662;28;19924;-69
2023/12/09 14:11:56;;;;;;;;;;;7.80;99.90;;;;;;4961136;28;19940;-69
2023/12/09 14:14:22;;;;;;;;;;;7.80;99.90;;;;;;4962939;28;19929;-70
2023/12/09 14:16:48;;;;;;;;;;;7.80;99.90;;;;;;4980267;28;20268;-69
2023/12/09 14:19:14;;;;;;;;;;;7.70;99.90;;;;;;4936781;28;20034;-69
2023/12/09 14:21:40;;;;;;;;;;;7.80;99.90;;;;;;4990028;28;19929;-69
2023/12/09 14:24:06;;;;;;;;;;;7.70;99.90;;;;;;4981404;28;19933;-69
2023/12/09 14:26:32;;;;;;;;;;;7.70;99.90;;;;;;4977151;28;19929;-70